sensor_id;sensor_type;location;lat;lon;timestamp;temperature;humidity
17174;DHT22;8702;48.130;-1.696;2022-07-22T00:00:05;20.60;98.60
17174;DHT22;8702;48.130;-1.696;2022-07-22T00:02:33;20.60;98.50
17174;DHT22;8702;48.130;-1.696;2022-07-22T00:05:00;20.70;98.60
17174;DHT22;8702;48.130;-1.696;2022-07-22T00:07:27;20.70;98.60
17174;DHT22;8702;48.130;-1.696;2022-07-22T00:09:54;20.60;98.50
17174;DHT22;8702;48.130;-1.696;2022-07-22T00:12:22;20.50;99.00
17174;DHT22;8702;48.130;-1.696;2022-07-22T00:14:49;20.50;99.00
17174;DHT22;8702;48.130;-1.696;2022-07-22T00:17:16;20.60;98.90
17174;DHT22;8702;48.130;-1.696;2022-07-22T00:19:43;20.70;98.80
17174;DHT22;8702;48.130;-1.696;2022-07-22T00:22:10;20.60;98.90
17174;DHT22;8702;48.130;-1.696;2022-07-22T00:24:37;20.50;99.00
17174;DHT22;8702;48.130;-1.696;2022-07-22T00:27:04;20.50;99.10
17174;DHT22;8702;48.130;-1.696;2022-07-22T00:29:33;20.50;99.10
17174;DHT22;8702;48.130;-1.696;2022-07-22T00:32:00;20.50;99.10
17174;DHT22;8702;48.130;-1.696;2022-07-22T00:34:27;20.50;99.30
17174;DHT22;8702;48.130;-1.696;2022-07-22T00:36:54;20.60;99.20
17174;DHT22;8702;48.130;-1.696;2022-07-22T00:39:21;20.70;99.00
17174;DHT22;8702;48.130;-1.696;2022-07-22T00:41:48;20.80;99.00
17174;DHT22;8702;48.130;-1.696;2022-07-22T00:44:16;20.70;99.00
17174;DHT22;8702;48.130;-1.696;2022-07-22T00:46:44;20.80;99.00
17174;DHT22;8702;48.130;-1.696;2022-07-22T00:49:11;20.80;98.90
17174;DHT22;8702;48.130;-1.696;2022-07-22T00:51:38;20.70;99.10
17174;DHT22;8702;48.130;-1.696;2022-07-22T00:54:06;20.70;99.20
17174;DHT22;8702;48.130;-1.696;2022-07-22T00:56:33;20.70;99.10
17174;DHT22;8702;48.130;-1.696;2022-07-22T00:59:04;20.60;99.40
17174;DHT22;8702;48.130;-1.696;2022-07-22T01:01:32;20.70;99.30
17174;DHT22;8702;48.130;-1.696;2022-07-22T01:04:00;20.70;99.30
17174;DHT22;8702;48.130;-1.696;2022-07-22T01:06:28;20.80;99.10
17174;DHT22;8702;48.130;-1.696;2022-07-22T01:08:55;20.70;99.20
17174;DHT22;8702;48.130;-1.696;2022-07-22T01:11:22;20.70;99.10
17174;DHT22;8702;48.130;-1.696;2022-07-22T01:13:49;20.70;99.20
17174;DHT22;8702;48.130;-1.696;2022-07-22T01:16:17;20.80;99.20
17174;DHT22;8702;48.130;-1.696;2022-07-22T01:18:45;20.80;99.20
17174;DHT22;8702;48.130;-1.696;2022-07-22T01:21:15;20.70;99.30
17174;DHT22;8702;48.130;-1.696;2022-07-22T01:23:43;20.70;99.50
17174;DHT22;8702;48.130;-1.696;2022-07-22T01:26:10;20.70;99.50
17174;DHT22;8702;48.130;-1.696;2022-07-22T01:28:37;20.60;99.60
17174;DHT22;8702;48.130;-1.696;2022-07-22T01:31:04;20.50;99.80
17174;DHT22;8702;48.130;-1.696;2022-07-22T01:33:31;20.50;99.80
17174;DHT22;8702;48.130;-1.696;2022-07-22T01:35:58;20.60;99.70
17174;DHT22;8702;48.130;-1.696;2022-07-22T01:38:27;20.60;99.80
17174;DHT22;8702;48.130;-1.696;2022-07-22T01:40:54;20.40;99.90
17174;DHT22;8702;48.130;-1.696;2022-07-22T01:43:21;20.40;99.90
17174;DHT22;8702;48.130;-1.696;2022-07-22T01:45:50;20.30;99.90
17174;DHT22;8702;48.130;-1.696;2022-07-22T01:48:18;20.40;99.90
17174;DHT22;8702;48.130;-1.696;2022-07-22T01:50:45;20.30;99.90
17174;DHT22;8702;48.130;-1.696;2022-07-22T01:53:13;20.30;99.90
17174;DHT22;8702;48.130;-1.696;2022-07-22T01:55:42;20.40;99.90
17174;DHT22;8702;48.130;-1.696;2022-07-22T01:58:09;20.30;99.90
17174;DHT22;8702;48.130;-1.696;2022-07-22T02:00:36;20.30;99.90
17174;DHT22;8702;48.130;-1.696;2022-07-22T02:03:03;20.30;99.90
17174;DHT22;8702;48.130;-1.696;2022-07-22T02:05:30;20.40;99.90
17174;DHT22;8702;48.130;-1.696;2022-07-22T02:08:02;20.40;99.90
17174;DHT22;8702;48.130;-1.696;2022-07-22T02:10:29;20.40;99.90
17174;DHT22;8702;48.130;-1.696;2022-07-22T02:12:58;20.40;99.90
17174;DHT22;8702;48.130;-1.696;2022-07-22T02:15:25;20.30;99.90
17174;DHT22;8702;48.130;-1.696;2022-07-22T02:17:52;20.40;99.90
17174;DHT22;8702;48.130;-1.696;2022-07-22T02:20:20;20.40;99.90
17174;DHT22;8702;48.130;-1.696;2022-07-22T02:22:47;20.40;99.90
17174;DHT22;8702;48.130;-1.696;2022-07-22T02:25:14;20.30;99.90
17174;DHT22;8702;48.130;-1.696;2022-07-22T02:27:42;20.30;99.90
17174;DHT22;8702;48.130;-1.696;2022-07-22T02:30:11;20.20;99.90
17174;DHT22;8702;48.130;-1.696;2022-07-22T02:32:38;20.30;99.90
17174;DHT22;8702;48.130;-1.696;2022-07-22T02:35:06;20.30;99.90
17174;DHT22;8702;48.130;-1.696;2022-07-22T02:37:33;20.10;99.90
17174;DHT22;8702;48.130;-1.696;2022-07-22T02:40:03;20.00;99.90
17174;DHT22;8702;48.130;-1.696;2022-07-22T02:42:30;20.00;99.90
17174;DHT22;8702;48.130;-1.696;2022-07-22T02:44:57;20.10;99.90
17174;DHT22;8702;48.130;-1.696;2022-07-22T02:47:26;20.00;99.90
17174;DHT22;8702;48.130;-1.696;2022-07-22T02:49:53;20.00;99.90
17174;DHT22;8702;48.130;-1.696;2022-07-22T02:52:20;20.10;99.90
17174;DHT22;8702;48.130;-1.696;2022-07-22T02:54:47;20.00;99.90
17174;DHT22;8702;48.130;-1.696;2022-07-22T02:57:14;19.80;99.90
17174;DHT22;8702;48.130;-1.696;2022-07-22T02:59:41;19.70;99.90
17174;DHT22;8702;48.130;-1.696;2022-07-22T03:02:08;19.70;99.90
17174;DHT22;8702;48.130;-1.696;2022-07-22T03:04:36;19.60;99.90
17174;DHT22;8702;48.130;-1.696;2022-07-22T03:07:03;19.60;99.90
17174;DHT22;8702;48.130;-1.696;2022-07-22T03:09:30;19.70;99.90
17174;DHT22;8702;48.130;-1.696;2022-07-22T03:11:57;19.60;99.90
17174;DHT22;8702;48.130;-1.696;2022-07-22T03:14:24;19.50;99.90
17174;DHT22;8702;48.130;-1.696;2022-07-22T03:16:51;19.50;99.90
17174;DHT22;8702;48.130;-1.696;2022-07-22T03:19:18;19.60;99.90
17174;DHT22;8702;48.130;-1.696;2022-07-22T03:21:46;19.70;99.90
17174;DHT22;8702;48.130;-1.696;2022-07-22T03:24:13;19.70;99.90
17174;DHT22;8702;48.130;-1.696;2022-07-22T03:26:40;19.80;99.90
17174;DHT22;8702;48.130;-1.696;2022-07-22T03:29:07;19.80;99.90
17174;DHT22;8702;48.130;-1.696;2022-07-22T03:31:34;19.80;99.90
17174;DHT22;8702;48.130;-1.696;2022-07-22T03:34:01;19.80;99.90
17174;DHT22;8702;48.130;-1.696;2022-07-22T03:36:28;19.80;99.90
17174;DHT22;8702;48.130;-1.696;2022-07-22T03:38:57;19.80;99.90
17174;DHT22;8702;48.130;-1.696;2022-07-22T03:41:24;19.80;99.90
17174;DHT22;8702;48.130;-1.696;2022-07-22T03:43:51;19.90;99.90
17174;DHT22;8702;48.130;-1.696;2022-07-22T03:46:18;19.90;99.90
17174;DHT22;8702;48.130;-1.696;2022-07-22T03:48:45;19.80;99.90
17174;DHT22;8702;48.130;-1.696;2022-07-22T03:51:12;19.80;99.90
17174;DHT22;8702;48.130;-1.696;2022-07-22T03:53:39;19.80;99.90
17174;DHT22;8702;48.130;-1.696;2022-07-22T03:56:08;19.70;99.90
17174;DHT22;8702;48.130;-1.696;2022-07-22T03:58:35;19.70;99.90
17174;DHT22;8702;48.130;-1.696;2022-07-22T04:01:02;19.80;99.90
17174;DHT22;8702;48.130;-1.696;2022-07-22T04:03:29;19.80;99.90
17174;DHT22;8702;48.130;-1.696;2022-07-22T04:05:56;19.80;99.90
17174;DHT22;8702;48.130;-1.696;2022-07-22T04:08:23;19.80;99.90
17174;DHT22;8702;48.130;-1.696;2022-07-22T04:10:49;19.80;99.90
17174;DHT22;8702;48.130;-1.696;2022-07-22T04:13:18;19.80;99.90
17174;DHT22;8702;48.130;-1.696;2022-07-22T04:15:45;19.80;99.90
17174;DHT22;8702;48.130;-1.696;2022-07-22T04:18:12;19.70;99.90
17174;DHT22;8702;48.130;-1.696;2022-07-22T04:20:40;19.80;99.90
17174;DHT22;8702;48.130;-1.696;2022-07-22T04:23:07;19.80;99.90
17174;DHT22;8702;48.130;-1.696;2022-07-22T04:25:34;19.70;99.90
17174;DHT22;8702;48.130;-1.696;2022-07-22T04:28:01;19.70;99.90
17174;DHT22;8702;48.130;-1.696;2022-07-22T04:30:30;19.70;99.90
17174;DHT22;8702;48.130;-1.696;2022-07-22T04:32:57;19.60;99.90
17174;DHT22;8702;48.130;-1.696;2022-07-22T04:35:24;19.60;99.90
17174;DHT22;8702;48.130;-1.696;2022-07-22T04:37:51;19.60;99.90
17174;DHT22;8702;48.130;-1.696;2022-07-22T04:40:18;19.60;99.90
17174;DHT22;8702;48.130;-1.696;2022-07-22T04:42:45;19.50;99.90
17174;DHT22;8702;48.130;-1.696;2022-07-22T04:45:12;19.60;99.90
17174;DHT22;8702;48.130;-1.696;2022-07-22T04:47:41;19.60;99.90
17174;DHT22;8702;48.130;-1.696;2022-07-22T04:50:08;19.50;99.90
17174;DHT22;8702;48.130;-1.696;2022-07-22T04:52:36;19.50;99.90
17174;DHT22;8702;48.130;-1.696;2022-07-22T04:55:03;19.50;99.90
17174;DHT22;8702;48.130;-1.696;2022-07-22T04:57:30;19.50;99.90
17174;DHT22;8702;48.130;-1.696;2022-07-22T04:59:57;19.40;99.90
17174;DHT22;8702;48.130;-1.696;2022-07-22T05:02:24;19.30;99.90
17174;DHT22;8702;48.130;-1.696;2022-07-22T05:04:53;19.40;99.90
17174;DHT22;8702;48.130;-1.696;2022-07-22T05:07:19;19.40;99.90
17174;DHT22;8702;48.130;-1.696;2022-07-22T05:09:46;19.40;99.90
17174;DHT22;8702;48.130;-1.696;2022-07-22T05:12:13;19.40;99.90
17174;DHT22;8702;48.130;-1.696;2022-07-22T05:14:40;19.40;99.90
17174;DHT22;8702;48.130;-1.696;2022-07-22T05:17:09;19.40;99.90
17174;DHT22;8702;48.130;-1.696;2022-07-22T05:19:37;19.40;99.90
17174;DHT22;8702;48.130;-1.696;2022-07-22T05:22:07;19.40;99.90
17174;DHT22;8702;48.130;-1.696;2022-07-22T05:24:34;19.50;99.90
17174;DHT22;8702;48.130;-1.696;2022-07-22T05:27:01;19.50;99.90
17174;DHT22;8702;48.130;-1.696;2022-07-22T05:29:28;19.50;99.90
17174;DHT22;8702;48.130;-1.696;2022-07-22T05:31:55;19.50;99.90
17174;DHT22;8702;48.130;-1.696;2022-07-22T05:34:22;19.50;99.90
17174;DHT22;8702;48.130;-1.696;2022-07-22T05:36:50;19.50;99.90
17174;DHT22;8702;48.130;-1.696;2022-07-22T05:39:18;19.50;99.90
17174;DHT22;8702;48.130;-1.696;2022-07-22T05:41:45;19.50;99.90
17174;DHT22;8702;48.130;-1.696;2022-07-22T05:44:12;19.50;99.90
17174;DHT22;8702;48.130;-1.696;2022-07-22T05:46:39;19.50;99.90
17174;DHT22;8702;48.130;-1.696;2022-07-22T05:49:06;19.60;99.90
17174;DHT22;8702;48.130;-1.696;2022-07-22T05:51:33;19.60;99.90
17174;DHT22;8702;48.130;-1.696;2022-07-22T05:54:01;19.70;99.90
17174;DHT22;8702;48.130;-1.696;2022-07-22T05:56:30;19.80;99.90
17174;DHT22;8702;48.130;-1.696;2022-07-22T05:58:57;19.70;99.90
17174;DHT22;8702;48.130;-1.696;2022-07-22T06:01:25;19.80;99.90
17174;DHT22;8702;48.130;-1.696;2022-07-22T06:03:52;19.80;99.90
17174;DHT22;8702;48.130;-1.696;2022-07-22T06:06:19;19.80;99.90
17174;DHT22;8702;48.130;-1.696;2022-07-22T06:08:46;19.80;99.90
17174;DHT22;8702;48.130;-1.696;2022-07-22T06:11:13;19.80;99.90
17174;DHT22;8702;48.130;-1.696;2022-07-22T06:13:41;19.70;99.90
17174;DHT22;8702;48.130;-1.696;2022-07-22T06:16:08;19.70;99.90
17174;DHT22;8702;48.130;-1.696;2022-07-22T06:18:35;19.70;99.90
17174;DHT22;8702;48.130;-1.696;2022-07-22T06:21:03;19.80;99.90
17174;DHT22;8702;48.130;-1.696;2022-07-22T06:23:30;19.80;99.90
17174;DHT22;8702;48.130;-1.696;2022-07-22T06:25:57;19.90;99.90
17174;DHT22;8702;48.130;-1.696;2022-07-22T06:28:25;19.90;99.90
17174;DHT22;8702;48.130;-1.696;2022-07-22T06:30:53;19.90;99.90
17174;DHT22;8702;48.130;-1.696;2022-07-22T06:33:20;19.80;99.90
17174;DHT22;8702;48.130;-1.696;2022-07-22T06:35:47;19.90;99.90
17174;DHT22;8702;48.130;-1.696;2022-07-22T06:38:14;20.00;99.90
17174;DHT22;8702;48.130;-1.696;2022-07-22T06:40:41;20.00;99.90
17174;DHT22;8702;48.130;-1.696;2022-07-22T06:43:08;20.00;99.90
17174;DHT22;8702;48.130;-1.696;2022-07-22T06:45:35;20.00;99.90
17174;DHT22;8702;48.130;-1.696;2022-07-22T06:48:04;20.00;99.90
17174;DHT22;8702;48.130;-1.696;2022-07-22T06:50:31;20.10;99.90
17174;DHT22;8702;48.130;-1.696;2022-07-22T06:52:58;20.10;99.90
17174;DHT22;8702;48.130;-1.696;2022-07-22T06:55:25;20.10;99.90
17174;DHT22;8702;48.130;-1.696;2022-07-22T06:57:52;20.20;99.90
17174;DHT22;8702;48.130;-1.696;2022-07-22T07:00:19;20.30;99.90
17174;DHT22;8702;48.130;-1.696;2022-07-22T07:02:46;20.20;99.90
17174;DHT22;8702;48.130;-1.696;2022-07-22T07:05:15;20.10;99.90
17174;DHT22;8702;48.130;-1.696;2022-07-22T07:07:42;20.10;99.90
17174;DHT22;8702;48.130;-1.696;2022-07-22T07:10:09;20.10;99.90
17174;DHT22;8702;48.130;-1.696;2022-07-22T07:12:38;20.20;99.90
17174;DHT22;8702;48.130;-1.696;2022-07-22T07:15:06;20.30;99.90
17174;DHT22;8702;48.130;-1.696;2022-07-22T07:17:33;20.30;99.90
17174;DHT22;8702;48.130;-1.696;2022-07-22T07:20:00;20.30;99.90
17174;DHT22;8702;48.130;-1.696;2022-07-22T07:22:28;20.30;99.90
17174;DHT22;8702;48.130;-1.696;2022-07-22T07:24:55;20.40;99.90
17174;DHT22;8702;48.130;-1.696;2022-07-22T07:27:22;20.40;99.90
17174;DHT22;8702;48.130;-1.696;2022-07-22T07:29:49;20.40;99.90
17174;DHT22;8702;48.130;-1.696;2022-07-22T07:32:16;20.40;99.90
17174;DHT22;8702;48.130;-1.696;2022-07-22T07:34:43;20.50;99.90
17174;DHT22;8702;48.130;-1.696;2022-07-22T07:37:11;20.50;99.90
17174;DHT22;8702;48.130;-1.696;2022-07-22T07:39:39;20.50;99.90
17174;DHT22;8702;48.130;-1.696;2022-07-22T07:42:06;20.50;99.90
17174;DHT22;8702;48.130;-1.696;2022-07-22T07:44:33;20.40;99.90
17174;DHT22;8702;48.130;-1.696;2022-07-22T07:47:00;20.40;99.90
17174;DHT22;8702;48.130;-1.696;2022-07-22T07:49:27;20.40;99.90
17174;DHT22;8702;48.130;-1.696;2022-07-22T07:51:55;20.40;99.90
17174;DHT22;8702;48.130;-1.696;2022-07-22T07:54:22;20.40;99.90
17174;DHT22;8702;48.130;-1.696;2022-07-22T07:56:50;20.40;99.90
17174;DHT22;8702;48.130;-1.696;2022-07-22T07:59:18;20.40;99.90
17174;DHT22;8702;48.130;-1.696;2022-07-22T08:01:45;20.40;99.90
17174;DHT22;8702;48.130;-1.696;2022-07-22T08:04:12;20.40;99.90
17174;DHT22;8702;48.130;-1.696;2022-07-22T08:06:39;20.40;99.90
17174;DHT22;8702;48.130;-1.696;2022-07-22T08:09:05;20.50;99.90
17174;DHT22;8702;48.130;-1.696;2022-07-22T08:11:32;20.50;99.90
17174;DHT22;8702;48.130;-1.696;2022-07-22T08:14:01;20.50;99.90
17174;DHT22;8702;48.130;-1.696;2022-07-22T08:16:28;20.50;99.90
17174;DHT22;8702;48.130;-1.696;2022-07-22T08:18:55;20.40;99.90
17174;DHT22;8702;48.130;-1.696;2022-07-22T08:21:22;20.50;99.90
17174;DHT22;8702;48.130;-1.696;2022-07-22T08:23:51;20.50;99.90
17174;DHT22;8702;48.130;-1.696;2022-07-22T08:26:18;20.50;99.90
17174;DHT22;8702;48.130;-1.696;2022-07-22T08:28:45;20.60;99.90
17174;DHT22;8702;48.130;-1.696;2022-07-22T08:31:14;20.60;99.90
17174;DHT22;8702;48.130;-1.696;2022-07-22T08:33:41;20.60;99.90
17174;DHT22;8702;48.130;-1.696;2022-07-22T08:36:08;20.60;99.90
17174;DHT22;8702;48.130;-1.696;2022-07-22T08:38:35;20.60;99.90
17174;DHT22;8702;48.130;-1.696;2022-07-22T08:41:03;20.60;99.90
17174;DHT22;8702;48.130;-1.696;2022-07-22T08:43:31;20.60;99.90
17174;DHT22;8702;48.130;-1.696;2022-07-22T08:46:01;20.70;99.90
17174;DHT22;8702;48.130;-1.696;2022-07-22T08:48:30;20.70;99.90
17174;DHT22;8702;48.130;-1.696;2022-07-22T08:50:57;20.80;99.90
17174;DHT22;8702;48.130;-1.696;2022-07-22T08:53:24;20.80;99.90
17174;DHT22;8702;48.130;-1.696;2022-07-22T08:55:51;20.70;99.90
17174;DHT22;8702;48.130;-1.696;2022-07-22T08:58:18;20.80;99.90
17174;DHT22;8702;48.130;-1.696;2022-07-22T09:00:45;20.90;99.90
17174;DHT22;8702;48.130;-1.696;2022-07-22T09:03:19;20.90;99.90
17174;DHT22;8702;48.130;-1.696;2022-07-22T09:05:50;21.00;99.90
17174;DHT22;8702;48.130;-1.696;2022-07-22T09:08:17;20.90;99.90
17174;DHT22;8702;48.130;-1.696;2022-07-22T09:10:44;20.90;99.90
17174;DHT22;8702;48.130;-1.696;2022-07-22T09:13:12;20.80;99.90
17174;DHT22;8702;48.130;-1.696;2022-07-22T09:15:46;20.80;99.90
17174;DHT22;8702;48.130;-1.696;2022-07-22T09:18:14;20.70;99.90
17174;DHT22;8702;48.130;-1.696;2022-07-22T09:20:42;20.70;99.90
17174;DHT22;8702;48.130;-1.696;2022-07-22T09:23:14;20.70;99.90
17174;DHT22;8702;48.130;-1.696;2022-07-22T09:25:43;20.70;99.90
17174;DHT22;8702;48.130;-1.696;2022-07-22T09:28:13;20.80;99.90
17174;DHT22;8702;48.130;-1.696;2022-07-22T09:30:46;20.80;99.90
17174;DHT22;8702;48.130;-1.696;2022-07-22T09:33:14;20.80;99.90
17174;DHT22;8702;48.130;-1.696;2022-07-22T09:35:42;20.80;99.90
17174;DHT22;8702;48.130;-1.696;2022-07-22T09:38:10;20.80;99.90
17174;DHT22;8702;48.130;-1.696;2022-07-22T09:40:40;20.90;99.90
17174;DHT22;8702;48.130;-1.696;2022-07-22T09:43:09;20.90;99.90
17174;DHT22;8702;48.130;-1.696;2022-07-22T09:45:45;20.90;99.90
17174;DHT22;8702;48.130;-1.696;2022-07-22T09:48:14;21.00;99.90
17174;DHT22;8702;48.130;-1.696;2022-07-22T09:50:43;20.90;99.90
17174;DHT22;8702;48.130;-1.696;2022-07-22T09:53:10;20.90;99.90
17174;DHT22;8702;48.130;-1.696;2022-07-22T09:55:39;20.80;99.90
17174;DHT22;8702;48.130;-1.696;2022-07-22T09:58:07;20.80;99.90
17174;DHT22;8702;48.130;-1.696;2022-07-22T10:00:35;20.80;99.90
17174;DHT22;8702;48.130;-1.696;2022-07-22T10:03:04;20.80;99.90
17174;DHT22;8702;48.130;-1.696;2022-07-22T10:05:34;20.80;99.90
17174;DHT22;8702;48.130;-1.696;2022-07-22T10:08:02;20.70;99.90
17174;DHT22;8702;48.130;-1.696;2022-07-22T10:10:30;20.70;99.90
17174;DHT22;8702;48.130;-1.696;2022-07-22T10:13:01;20.70;99.90
17174;DHT22;8702;48.130;-1.696;2022-07-22T10:15:29;20.70;99.90
17174;DHT22;8702;48.130;-1.696;2022-07-22T10:17:58;20.60;99.90
17174;DHT22;8702;48.130;-1.696;2022-07-22T10:20:28;20.70;99.90
17174;DHT22;8702;48.130;-1.696;2022-07-22T10:22:56;20.70;99.90
17174;DHT22;8702;48.130;-1.696;2022-07-22T10:25:25;20.70;99.90
17174;DHT22;8702;48.130;-1.696;2022-07-22T10:27:56;20.70;99.90
17174;DHT22;8702;48.130;-1.696;2022-07-22T10:30:26;20.80;99.90
17174;DHT22;8702;48.130;-1.696;2022-07-22T10:33:08;20.70;99.90
17174;DHT22;8702;48.130;-1.696;2022-07-22T10:35:37;20.70;99.90
17174;DHT22;8702;48.130;-1.696;2022-07-22T10:38:07;20.70;99.90
17174;DHT22;8702;48.130;-1.696;2022-07-22T10:40:55;20.70;99.90
17174;DHT22;8702;48.130;-1.696;2022-07-22T10:43:24;20.70;99.90
17174;DHT22;8702;48.130;-1.696;2022-07-22T10:45:54;20.60;99.90
17174;DHT22;8702;48.130;-1.696;2022-07-22T10:48:24;20.60;99.90
17174;DHT22;8702;48.130;-1.696;2022-07-22T10:53:43;20.50;99.90
17174;DHT22;8702;48.130;-1.696;2022-07-22T10:56:19;20.50;99.90
17174;DHT22;8702;48.130;-1.696;2022-07-22T10:58:58;20.60;99.90
17174;DHT22;8702;48.130;-1.696;2022-07-22T11:01:28;20.60;99.90
17174;DHT22;8702;48.130;-1.696;2022-07-22T11:03:56;20.60;99.90
17174;DHT22;8702;48.130;-1.696;2022-07-22T11:06:33;20.60;99.90
17174;DHT22;8702;48.130;-1.696;2022-07-22T11:09:02;20.60;99.90
17174;DHT22;8702;48.130;-1.696;2022-07-22T11:11:38;20.70;99.90
17174;DHT22;8702;48.130;-1.696;2022-07-22T11:14:19;20.70;99.90
17174;DHT22;8702;48.130;-1.696;2022-07-22T11:16:49;20.70;99.90
17174;DHT22;8702;48.130;-1.696;2022-07-22T11:19:20;20.70;99.90
17174;DHT22;8702;48.130;-1.696;2022-07-22T11:21:53;20.70;99.90
17174;DHT22;8702;48.130;-1.696;2022-07-22T11:24:21;20.70;99.90
17174;DHT22;8702;48.130;-1.696;2022-07-22T11:26:50;20.80;99.90
17174;DHT22;8702;48.130;-1.696;2022-07-22T11:29:24;20.80;99.90
17174;DHT22;8702;48.130;-1.696;2022-07-22T11:31:53;21.00;99.90
17174;DHT22;8702;48.130;-1.696;2022-07-22T11:34:21;20.90;99.90
17174;DHT22;8702;48.130;-1.696;2022-07-22T11:36:48;21.00;99.90
17174;DHT22;8702;48.130;-1.696;2022-07-22T11:39:19;21.00;99.90
17174;DHT22;8702;48.130;-1.696;2022-07-22T11:41:46;20.90;99.90
17174;DHT22;8702;48.130;-1.696;2022-07-22T11:44:17;20.90;99.90
17174;DHT22;8702;48.130;-1.696;2022-07-22T11:46:45;21.00;99.90
17174;DHT22;8702;48.130;-1.696;2022-07-22T11:49:16;21.10;99.90
17174;DHT22;8702;48.130;-1.696;2022-07-22T11:51:43;21.20;99.90
17174;DHT22;8702;48.130;-1.696;2022-07-22T11:54:11;21.30;99.90
17174;DHT22;8702;48.130;-1.696;2022-07-22T11:56:38;21.40;99.90
17174;DHT22;8702;48.130;-1.696;2022-07-22T11:59:07;21.40;99.90
17174;DHT22;8702;48.130;-1.696;2022-07-22T12:01:36;21.40;99.90
17174;DHT22;8702;48.130;-1.696;2022-07-22T12:04:05;21.40;99.90
17174;DHT22;8702;48.130;-1.696;2022-07-22T12:06:36;21.50;99.90
17174;DHT22;8702;48.130;-1.696;2022-07-22T12:09:06;21.40;99.90
17174;DHT22;8702;48.130;-1.696;2022-07-22T12:11:34;21.40;99.90
17174;DHT22;8702;48.130;-1.696;2022-07-22T12:14:06;21.40;99.90
17174;DHT22;8702;48.130;-1.696;2022-07-22T12:16:34;21.50;99.90
17174;DHT22;8702;48.130;-1.696;2022-07-22T12:19:02;21.50;99.90
17174;DHT22;8702;48.130;-1.696;2022-07-22T12:21:32;21.50;99.90
17174;DHT22;8702;48.130;-1.696;2022-07-22T12:24:03;21.50;99.90
17174;DHT22;8702;48.130;-1.696;2022-07-22T12:26:41;21.50;99.90
17174;DHT22;8702;48.130;-1.696;2022-07-22T12:29:21;21.60;99.90
17174;DHT22;8702;48.130;-1.696;2022-07-22T12:31:49;21.60;99.90
17174;DHT22;8702;48.130;-1.696;2022-07-22T12:34:17;21.50;99.90
17174;DHT22;8702;48.130;-1.696;2022-07-22T12:36:55;21.50;99.90
17174;DHT22;8702;48.130;-1.696;2022-07-22T12:39:23;21.60;99.90
17174;DHT22;8702;48.130;-1.696;2022-07-22T12:41:52;21.60;99.90
17174;DHT22;8702;48.130;-1.696;2022-07-22T12:44:21;21.60;99.90
17174;DHT22;8702;48.130;-1.696;2022-07-22T12:46:53;21.60;99.90
17174;DHT22;8702;48.130;-1.696;2022-07-22T12:49:22;21.60;99.90
17174;DHT22;8702;48.130;-1.696;2022-07-22T12:52:13;21.60;99.90
17174;DHT22;8702;48.130;-1.696;2022-07-22T12:54:42;21.60;99.90
17174;DHT22;8702;48.130;-1.696;2022-07-22T12:57:09;21.70;99.90
17174;DHT22;8702;48.130;-1.696;2022-07-22T12:59:36;21.80;99.90
17174;DHT22;8702;48.130;-1.696;2022-07-22T13:02:04;21.90;99.90
17174;DHT22;8702;48.130;-1.696;2022-07-22T13:04:31;21.80;99.90
17174;DHT22;8702;48.130;-1.696;2022-07-22T13:06:59;21.80;99.90
17174;DHT22;8702;48.130;-1.696;2022-07-22T13:09:26;21.80;99.90
17174;DHT22;8702;48.130;-1.696;2022-07-22T13:11:55;21.80;99.90
17174;DHT22;8702;48.130;-1.696;2022-07-22T13:14:22;21.80;99.90
17174;DHT22;8702;48.130;-1.696;2022-07-22T13:16:49;21.80;99.90
17174;DHT22;8702;48.130;-1.696;2022-07-22T13:19:16;21.90;99.90
17174;DHT22;8702;48.130;-1.696;2022-07-22T13:21:42;21.90;99.90
17174;DHT22;8702;48.130;-1.696;2022-07-22T13:24:10;22.00;99.90
17174;DHT22;8702;48.130;-1.696;2022-07-22T13:26:38;22.00;99.90
17174;DHT22;8702;48.130;-1.696;2022-07-22T13:29:06;22.00;99.90
17174;DHT22;8702;48.130;-1.696;2022-07-22T13:31:35;22.10;99.90
17174;DHT22;8702;48.130;-1.696;2022-07-22T13:34:02;22.00;99.90
17174;DHT22;8702;48.130;-1.696;2022-07-22T13:36:29;22.10;99.90
17174;DHT22;8702;48.130;-1.696;2022-07-22T13:38:58;22.20;99.90
17174;DHT22;8702;48.130;-1.696;2022-07-22T13:41:25;22.20;99.90
17174;DHT22;8702;48.130;-1.696;2022-07-22T13:43:52;22.00;99.90
17174;DHT22;8702;48.130;-1.696;2022-07-22T13:46:20;21.90;99.90
17174;DHT22;8702;48.130;-1.696;2022-07-22T13:48:47;21.90;99.90
17174;DHT22;8702;48.130;-1.696;2022-07-22T13:51:15;21.90;99.90
17174;DHT22;8702;48.130;-1.696;2022-07-22T13:53:42;21.70;99.90
17174;DHT22;8702;48.130;-1.696;2022-07-22T13:56:10;21.80;99.90
17174;DHT22;8702;48.130;-1.696;2022-07-22T13:58:38;21.70;99.90
17174;DHT22;8702;48.130;-1.696;2022-07-22T14:01:07;22.10;99.90
17174;DHT22;8702;48.130;-1.696;2022-07-22T14:03:36;21.80;99.80
17174;DHT22;8702;48.130;-1.696;2022-07-22T14:06:03;21.70;99.50
17174;DHT22;8702;48.130;-1.696;2022-07-22T14:08:30;21.70;99.80
17174;DHT22;8702;48.130;-1.696;2022-07-22T14:10:58;21.70;99.60
17174;DHT22;8702;48.130;-1.696;2022-07-22T14:13:25;21.70;99.30
17174;DHT22;8702;48.130;-1.696;2022-07-22T14:15:52;21.60;99.50
17174;DHT22;8702;48.130;-1.696;2022-07-22T14:18:19;21.70;99.30
17174;DHT22;8702;48.130;-1.696;2022-07-22T14:20:47;21.70;99.40
17174;DHT22;8702;48.130;-1.696;2022-07-22T14:23:14;21.70;99.00
17174;DHT22;8702;48.130;-1.696;2022-07-22T14:25:46;21.70;99.00
17174;DHT22;8702;48.130;-1.696;2022-07-22T14:28:13;21.60;98.60
17174;DHT22;8702;48.130;-1.696;2022-07-22T14:30:40;21.50;98.60
17174;DHT22;8702;48.130;-1.696;2022-07-22T14:33:07;21.50;98.90
17174;DHT22;8702;48.130;-1.696;2022-07-22T14:35:34;21.40;98.80
17174;DHT22;8702;48.130;-1.696;2022-07-22T14:38:03;21.50;98.90
17174;DHT22;8702;48.130;-1.696;2022-07-22T14:40:30;21.50;98.70
17174;DHT22;8702;48.130;-1.696;2022-07-22T14:42:57;21.50;98.60
17174;DHT22;8702;48.130;-1.696;2022-07-22T14:45:24;21.50;98.70
17174;DHT22;8702;48.130;-1.696;2022-07-22T14:47:51;21.60;98.40
17174;DHT22;8702;48.130;-1.696;2022-07-22T14:50:18;21.60;98.40
17174;DHT22;8702;48.130;-1.696;2022-07-22T14:52:45;21.40;98.00
17174;DHT22;8702;48.130;-1.696;2022-07-22T14:55:13;21.40;98.00
17174;DHT22;8702;48.130;-1.696;2022-07-22T14:57:41;21.40;98.10
17174;DHT22;8702;48.130;-1.696;2022-07-22T15:00:08;21.50;98.00
17174;DHT22;8702;48.130;-1.696;2022-07-22T15:02:35;21.40;97.60
17174;DHT22;8702;48.130;-1.696;2022-07-22T15:05:03;21.50;97.80
17174;DHT22;8702;48.130;-1.696;2022-07-22T15:07:30;21.60;97.80
17174;DHT22;8702;48.130;-1.696;2022-07-22T15:09:57;21.60;97.50
17174;DHT22;8702;48.130;-1.696;2022-07-22T15:12:25;21.70;97.40
17174;DHT22;8702;48.130;-1.696;2022-07-22T15:14:52;21.70;97.70
17174;DHT22;8702;48.130;-1.696;2022-07-22T15:17:19;21.70;97.50
17174;DHT22;8702;48.130;-1.696;2022-07-22T15:19:46;21.80;97.60
17174;DHT22;8702;48.130;-1.696;2022-07-22T15:22:13;21.80;97.70
17174;DHT22;8702;48.130;-1.696;2022-07-22T15:24:40;21.90;97.60
17174;DHT22;8702;48.130;-1.696;2022-07-22T15:27:07;22.00;97.50
17174;DHT22;8702;48.130;-1.696;2022-07-22T15:29:36;22.10;96.80
17174;DHT22;8702;48.130;-1.696;2022-07-22T15:32:03;22.00;96.90
17174;DHT22;8702;48.130;-1.696;2022-07-22T15:34:31;21.90;96.60
17174;DHT22;8702;48.130;-1.696;2022-07-22T15:36:59;21.90;96.70